sensor_id;sensor_type;location;lat;lon;timestamp;P1;durP1;ratioP1;P2;durP2;ratioP2
2698;SDS011;1359;51.798;12.174;2023-02-23T00:01:23;12.57;;;6.70;;
2698;SDS011;1359;51.798;12.174;2023-02-23T00:03:48;16.53;;;6.77;;
2698;SDS011;1359;51.798;12.174;2023-02-23T00:06:15;18.03;;;8.00;;
2698;SDS011;1359;51.798;12.174;2023-02-23T00:08:40;16.93;;;7.13;;
2698;SDS011;1359;51.798;12.174;2023-02-23T00:11:07;14.00;;;7.30;;
2698;SDS011;1359;51.798;12.174;2023-02-23T00:13:33;11.13;;;7.17;;
2698;SDS011;1359;51.798;12.174;2023-02-23T00:16:09;18.53;;;8.10;;
2698;SDS011;1359;51.798;12.174;2023-02-23T00:18:36;13.10;;;7.00;;
2698;SDS011;1359;51.798;12.174;2023-02-23T00:21:12;7.23;;;5.87;;
2698;SDS011;1359;51.798;12.174;2023-02-23T00:23:42;10.13;;;7.30;;
2698;SDS011;1359;51.798;12.174;2023-02-23T00:26:08;12.00;;;7.73;;
2698;SDS011;1359;51.798;12.174;2023-02-23T00:28:33;10.67;;;7.17;;
2698;SDS011;1359;51.798;12.174;2023-02-23T00:31:02;12.67;;;6.33;;
2698;SDS011;1359;51.798;12.174;2023-02-23T00:33:28;15.20;;;7.20;;
2698;SDS011;1359;51.798;12.174;2023-02-23T00:36:02;14.47;;;7.27;;
2698;SDS011;1359;51.798;12.174;2023-02-23T00:38:28;11.30;;;7.37;;
2698;SDS011;1359;51.798;12.174;2023-02-23T00:40:59;12.90;;;6.47;;
2698;SDS011;1359;51.798;12.174;2023-02-23T00:43:24;15.83;;;8.20;;
2698;SDS011;1359;51.798;12.174;2023-02-23T00:45:54;15.10;;;6.30;;
2698;SDS011;1359;51.798;12.174;2023-02-23T00:48:20;9.90;;;6.93;;
2698;SDS011;1359;51.798;12.174;2023-02-23T00:50:45;11.60;;;6.87;;
2698;SDS011;1359;51.798;12.174;2023-02-23T00:53:14;17.90;;;7.80;;
2698;SDS011;1359;51.798;12.174;2023-02-23T00:55:41;9.83;;;7.03;;
2698;SDS011;1359;51.798;12.174;2023-02-23T00:58:08;11.90;;;8.20;;
2698;SDS011;1359;51.798;12.174;2023-02-23T01:00:33;11.43;;;7.43;;
2698;SDS011;1359;51.798;12.174;2023-02-23T01:03:06;14.03;;;8.00;;
2698;SDS011;1359;51.798;12.174;2023-02-23T01:05:34;12.33;;;7.23;;
2698;SDS011;1359;51.798;12.174;2023-02-23T01:08:00;8.47;;;6.30;;
2698;SDS011;1359;51.798;12.174;2023-02-23T01:10:25;16.07;;;7.57;;
2698;SDS011;1359;51.798;12.174;2023-02-23T01:12:51;17.50;;;7.57;;
2698;SDS011;1359;51.798;12.174;2023-02-23T01:15:17;14.73;;;7.53;;
2698;SDS011;1359;51.798;12.174;2023-02-23T01:17:42;13.90;;;7.53;;
2698;SDS011;1359;51.798;12.174;2023-02-23T01:20:10;16.47;;;7.80;;
2698;SDS011;1359;51.798;12.174;2023-02-23T01:22:47;14.73;;;8.63;;
2698;SDS011;1359;51.798;12.174;2023-02-23T01:25:13;15.20;;;8.00;;
2698;SDS011;1359;51.798;12.174;2023-02-23T01:27:39;13.80;;;7.70;;
2698;SDS011;1359;51.798;12.174;2023-02-23T01:30:08;15.00;;;7.90;;
2698;SDS011;1359;51.798;12.174;2023-02-23T01:32:35;12.70;;;8.10;;
2698;SDS011;1359;51.798;12.174;2023-02-23T01:35:04;10.00;;;6.20;;
2698;SDS011;1359;51.798;12.174;2023-02-23T01:37:33;12.30;;;7.13;;
2698;SDS011;1359;51.798;12.174;2023-02-23T01:39:59;27.97;;;8.33;;
2698;SDS011;1359;51.798;12.174;2023-02-23T01:42:24;14.50;;;8.10;;
2698;SDS011;1359;51.798;12.174;2023-02-23T01:47:34;18.70;;;10.00;;
2698;SDS011;1359;51.798;12.174;2023-02-23T01:49:59;13.13;;;8.40;;
2698;SDS011;1359;51.798;12.174;2023-02-23T01:52:26;14.40;;;9.17;;
2698;SDS011;1359;51.798;12.174;2023-02-23T01:54:53;17.57;;;8.50;;
2698;SDS011;1359;51.798;12.174;2023-02-23T01:57:20;13.80;;;9.33;;
2698;SDS011;1359;51.798;12.174;2023-02-23T01:59:47;14.50;;;8.30;;
2698;SDS011;1359;51.798;12.174;2023-02-23T02:02:13;12.47;;;8.90;;
2698;SDS011;1359;51.798;12.174;2023-02-23T02:04:40;14.17;;;10.13;;
2698;SDS011;1359;51.798;12.174;2023-02-23T02:07:09;16.90;;;8.97;;
2698;SDS011;1359;51.798;12.174;2023-02-23T02:09:35;16.77;;;10.07;;
2698;SDS011;1359;51.798;12.174;2023-02-23T02:12:03;16.13;;;9.93;;
2698;SDS011;1359;51.798;12.174;2023-02-23T02:14:32;14.30;;;9.80;;
2698;SDS011;1359;51.798;12.174;2023-02-23T02:19:43;12.70;;;9.53;;
2698;SDS011;1359;51.798;12.174;2023-02-23T02:27:20;22.60;;;10.50;;
2698;SDS011;1359;51.798;12.174;2023-02-23T02:37:55;18.13;;;10.00;;
2698;SDS011;1359;51.798;12.174;2023-02-23T02:40:27;29.03;;;10.63;;
2698;SDS011;1359;51.798;12.174;2023-02-23T02:43:00;23.50;;;10.20;;
2698;SDS011;1359;51.798;12.174;2023-02-23T02:45:39;15.73;;;8.70;;
2698;SDS011;1359;51.798;12.174;2023-02-23T02:48:14;14.97;;;9.20;;
2698;SDS011;1359;51.798;12.174;2023-02-23T02:50:52;13.93;;;9.57;;
2698;SDS011;1359;51.798;12.174;2023-02-23T02:53:27;17.40;;;10.07;;
2698;SDS011;1359;51.798;12.174;2023-02-23T02:55:58;14.23;;;9.67;;
2698;SDS011;1359;51.798;12.174;2023-02-23T02:58:24;20.93;;;11.43;;
2698;SDS011;1359;51.798;12.174;2023-02-23T03:00:51;17.87;;;9.60;;
2698;SDS011;1359;51.798;12.174;2023-02-23T03:06:21;16.57;;;10.73;;
2698;SDS011;1359;51.798;12.174;2023-02-23T03:09:10;20.00;;;10.70;;
2698;SDS011;1359;51.798;12.174;2023-02-23T03:12:09;15.10;;;10.93;;
2698;SDS011;1359;51.798;12.174;2023-02-23T03:17:42;15.00;;;10.97;;
2698;SDS011;1359;51.798;12.174;2023-02-23T03:23:22;18.07;;;11.50;;
2698;SDS011;1359;51.798;12.174;2023-02-23T03:26:10;12.07;;;9.30;;
2698;SDS011;1359;51.798;12.174;2023-02-23T03:29:00;17.87;;;11.87;;
2698;SDS011;1359;51.798;12.174;2023-02-23T03:34:37;16.37;;;11.37;;
2698;SDS011;1359;51.798;12.174;2023-02-23T03:37:26;15.33;;;10.70;;
2698;SDS011;1359;51.798;12.174;2023-02-23T03:40:20;15.43;;;9.53;;
2698;SDS011;1359;51.798;12.174;2023-02-23T03:43:06;14.50;;;10.13;;
2698;SDS011;1359;51.798;12.174;2023-02-23T03:45:52;15.40;;;10.20;;
2698;SDS011;1359;51.798;12.174;2023-02-23T03:48:38;16.70;;;10.87;;
2698;SDS011;1359;51.798;12.174;2023-02-23T03:51:24;15.77;;;10.83;;
2698;SDS011;1359;51.798;12.174;2023-02-23T03:54:10;11.47;;;9.10;;
2698;SDS011;1359;51.798;12.174;2023-02-23T03:56:55;13.80;;;9.97;;
2698;SDS011;1359;51.798;12.174;2023-02-23T03:59:45;16.57;;;9.70;;
2698;SDS011;1359;51.798;12.174;2023-02-23T04:02:38;18.53;;;10.30;;
2698;SDS011;1359;51.798;12.174;2023-02-23T04:05:24;13.47;;;9.30;;
2698;SDS011;1359;51.798;12.174;2023-02-23T04:08:11;11.13;;;9.00;;
2698;SDS011;1359;51.798;12.174;2023-02-23T04:11:00;16.50;;;9.90;;
2698;SDS011;1359;51.798;12.174;2023-02-23T04:13:45;14.97;;;9.10;;
2698;SDS011;1359;51.798;12.174;2023-02-23T04:16:12;14.10;;;8.90;;
2698;SDS011;1359;51.798;12.174;2023-02-23T04:18:38;17.23;;;10.10;;
2698;SDS011;1359;51.798;12.174;2023-02-23T04:21:04;15.57;;;9.20;;
2698;SDS011;1359;51.798;12.174;2023-02-23T04:23:29;17.93;;;10.27;;
2698;SDS011;1359;51.798;12.174;2023-02-23T04:25:55;16.50;;;9.80;;
2698;SDS011;1359;51.798;12.174;2023-02-23T04:28:20;17.67;;;9.40;;
2698;SDS011;1359;51.798;12.174;2023-02-23T04:30:46;18.43;;;10.50;;
2698;SDS011;1359;51.798;12.174;2023-02-23T04:33:12;13.73;;;10.03;;
2698;SDS011;1359;51.798;12.174;2023-02-23T04:35:37;13.97;;;10.60;;
2698;SDS011;1359;51.798;12.174;2023-02-23T04:38:03;10.60;;;8.13;;
2698;SDS011;1359;51.798;12.174;2023-02-23T04:40:28;13.53;;;9.00;;
2698;SDS011;1359;51.798;12.174;2023-02-23T04:42:53;12.67;;;8.90;;
2698;SDS011;1359;51.798;12.174;2023-02-23T04:45:19;17.00;;;9.20;;
2698;SDS011;1359;51.798;12.174;2023-02-23T04:47:46;12.37;;;8.70;;
2698;SDS011;1359;51.798;12.174;2023-02-23T04:50:11;12.93;;;9.10;;
2698;SDS011;1359;51.798;12.174;2023-02-23T04:52:37;12.20;;;7.60;;
2698;SDS011;1359;51.798;12.174;2023-02-23T04:55:04;12.50;;;8.43;;
2698;SDS011;1359;51.798;12.174;2023-02-23T04:57:29;15.00;;;7.67;;
2698;SDS011;1359;51.798;12.174;2023-02-23T04:59:55;13.77;;;7.63;;
2698;SDS011;1359;51.798;12.174;2023-02-23T05:02:20;11.70;;;8.57;;
2698;SDS011;1359;51.798;12.174;2023-02-23T05:04:45;10.40;;;6.80;;
2698;SDS011;1359;51.798;12.174;2023-02-23T05:07:10;13.57;;;8.97;;
2698;SDS011;1359;51.798;12.174;2023-02-23T05:09:36;13.23;;;8.70;;
2698;SDS011;1359;51.798;12.174;2023-02-23T05:12:01;14.20;;;8.50;;
2698;SDS011;1359;51.798;12.174;2023-02-23T05:14:26;12.20;;;8.93;;
2698;SDS011;1359;51.798;12.174;2023-02-23T05:16:52;16.87;;;9.13;;
2698;SDS011;1359;51.798;12.174;2023-02-23T05:19:17;21.63;;;12.47;;
2698;SDS011;1359;51.798;12.174;2023-02-23T05:21:43;20.37;;;12.47;;
2698;SDS011;1359;51.798;12.174;2023-02-23T05:24:08;24.50;;;11.50;;
2698;SDS011;1359;51.798;12.174;2023-02-23T05:26:34;18.83;;;12.13;;
2698;SDS011;1359;51.798;12.174;2023-02-23T05:28:59;20.37;;;10.77;;
2698;SDS011;1359;51.798;12.174;2023-02-23T05:31:25;16.93;;;10.00;;
2698;SDS011;1359;51.798;12.174;2023-02-23T05:33:50;17.97;;;10.90;;
2698;SDS011;1359;51.798;12.174;2023-02-23T05:36:17;14.70;;;9.60;;
2698;SDS011;1359;51.798;12.174;2023-02-23T05:38:43;14.27;;;9.67;;
2698;SDS011;1359;51.798;12.174;2023-02-23T05:41:09;14.67;;;8.47;;
2698;SDS011;1359;51.798;12.174;2023-02-23T05:43:35;13.90;;;9.90;;
2698;SDS011;1359;51.798;12.174;2023-02-23T05:46:00;13.57;;;9.73;;
2698;SDS011;1359;51.798;12.174;2023-02-23T05:48:29;14.97;;;10.23;;
2698;SDS011;1359;51.798;12.174;2023-02-23T05:50:54;15.50;;;10.83;;
2698;SDS011;1359;51.798;12.174;2023-02-23T05:53:24;12.27;;;8.20;;
2698;SDS011;1359;51.798;12.174;2023-02-23T05:55:50;17.17;;;11.00;;
2698;SDS011;1359;51.798;12.174;2023-02-23T05:58:16;12.10;;;9.50;;
2698;SDS011;1359;51.798;12.174;2023-02-23T06:00:41;17.60;;;9.20;;
2698;SDS011;1359;51.798;12.174;2023-02-23T06:03:06;11.97;;;9.00;;
2698;SDS011;1359;51.798;12.174;2023-02-23T06:05:32;16.03;;;10.87;;
2698;SDS011;1359;51.798;12.174;2023-02-23T06:07:57;14.30;;;10.50;;
2698;SDS011;1359;51.798;12.174;2023-02-23T06:10:22;13.93;;;9.63;;
2698;SDS011;1359;51.798;12.174;2023-02-23T06:12:48;15.93;;;10.70;;
2698;SDS011;1359;51.798;12.174;2023-02-23T06:15:13;16.83;;;9.87;;
2698;SDS011;1359;51.798;12.174;2023-02-23T06:17:38;15.23;;;10.73;;
2698;SDS011;1359;51.798;12.174;2023-02-23T06:20:04;25.47;;;11.60;;
2698;SDS011;1359;51.798;12.174;2023-02-23T06:22:31;10.03;;;8.93;;
2698;SDS011;1359;51.798;12.174;2023-02-23T06:24:56;14.80;;;9.87;;
2698;SDS011;1359;51.798;12.174;2023-02-23T06:27:22;20.13;;;10.70;;
2698;SDS011;1359;51.798;12.174;2023-02-23T06:29:47;14.23;;;9.43;;
2698;SDS011;1359;51.798;12.174;2023-02-23T06:32:12;14.10;;;8.97;;
2698;SDS011;1359;51.798;12.174;2023-02-23T06:34:44;12.67;;;9.00;;
2698;SDS011;1359;51.798;12.174;2023-02-23T06:37:09;16.20;;;10.10;;
2698;SDS011;1359;51.798;12.174;2023-02-23T06:39:36;16.23;;;10.17;;
2698;SDS011;1359;51.798;12.174;2023-02-23T06:42:01;21.67;;;10.17;;
2698;SDS011;1359;51.798;12.174;2023-02-23T06:44:26;13.07;;;10.10;;
2698;SDS011;1359;51.798;12.174;2023-02-23T06:46:52;11.40;;;9.60;;
2698;SDS011;1359;51.798;12.174;2023-02-23T06:49:17;25.77;;;13.40;;
2698;SDS011;1359;51.798;12.174;2023-02-23T06:51:43;30.40;;;17.87;;
2698;SDS011;1359;51.798;12.174;2023-02-23T06:54:08;24.27;;;17.67;;
2698;SDS011;1359;51.798;12.174;2023-02-23T06:56:33;15.53;;;12.70;;
2698;SDS011;1359;51.798;12.174;2023-02-23T06:58:58;27.13;;;13.67;;
2698;SDS011;1359;51.798;12.174;2023-02-23T07:01:24;19.40;;;12.57;;
2698;SDS011;1359;51.798;12.174;2023-02-23T07:03:49;16.83;;;13.87;;
2698;SDS011;1359;51.798;12.174;2023-02-23T07:06:14;17.53;;;11.73;;
2698;SDS011;1359;51.798;12.174;2023-02-23T07:08:40;19.63;;;13.23;;
2698;SDS011;1359;51.798;12.174;2023-02-23T07:11:09;16.73;;;11.33;;
2698;SDS011;1359;51.798;12.174;2023-02-23T07:13:34;19.53;;;13.23;;
2698;SDS011;1359;51.798;12.174;2023-02-23T07:16:00;22.57;;;14.57;;
2698;SDS011;1359;51.798;12.174;2023-02-23T07:18:25;21.23;;;15.07;;
2698;SDS011;1359;51.798;12.174;2023-02-23T07:20:51;25.80;;;17.93;;
2698;SDS011;1359;51.798;12.174;2023-02-23T07:23:16;33.40;;;17.60;;
2698;SDS011;1359;51.798;12.174;2023-02-23T07:25:42;28.10;;;18.60;;
2698;SDS011;1359;51.798;12.174;2023-02-23T07:28:07;31.37;;;19.30;;
2698;SDS011;1359;51.798;12.174;2023-02-23T07:30:32;30.17;;;20.47;;
2698;SDS011;1359;51.798;12.174;2023-02-23T07:32:58;33.47;;;20.27;;
2698;SDS011;1359;51.798;12.174;2023-02-23T07:35:23;38.53;;;22.10;;
2698;SDS011;1359;51.798;12.174;2023-02-23T07:37:48;34.03;;;21.90;;
2698;SDS011;1359;51.798;12.174;2023-02-23T07:40:14;20.13;;;14.30;;
2698;SDS011;1359;51.798;12.174;2023-02-23T07:42:40;20.50;;;13.77;;
2698;SDS011;1359;51.798;12.174;2023-02-23T07:45:05;23.37;;;15.60;;
2698;SDS011;1359;51.798;12.174;2023-02-23T07:47:31;21.00;;;16.17;;
2698;SDS011;1359;51.798;12.174;2023-02-23T07:49:59;28.30;;;15.63;;
2698;SDS011;1359;51.798;12.174;2023-02-23T07:52:27;22.00;;;13.83;;
2698;SDS011;1359;51.798;12.174;2023-02-23T07:54:53;17.17;;;12.33;;
2698;SDS011;1359;51.798;12.174;2023-02-23T07:57:18;18.83;;;13.37;;
2698;SDS011;1359;51.798;12.174;2023-02-23T07:59:45;22.43;;;14.50;;
2698;SDS011;1359;51.798;12.174;2023-02-23T08:02:11;18.70;;;14.03;;
2698;SDS011;1359;51.798;12.174;2023-02-23T08:04:37;15.40;;;12.03;;
2698;SDS011;1359;51.798;12.174;2023-02-23T08:07:04;21.57;;;14.40;;
2698;SDS011;1359;51.798;12.174;2023-02-23T08:09:30;19.63;;;12.80;;
2698;SDS011;1359;51.798;12.174;2023-02-23T08:11:56;24.07;;;15.10;;
2698;SDS011;1359;51.798;12.174;2023-02-23T08:14:22;24.07;;;16.00;;
2698;SDS011;1359;51.798;12.174;2023-02-23T08:16:48;21.90;;;15.00;;
2698;SDS011;1359;51.798;12.174;2023-02-23T08:19:13;21.73;;;16.20;;
2698;SDS011;1359;51.798;12.174;2023-02-23T08:21:38;23.83;;;17.33;;
2698;SDS011;1359;51.798;12.174;2023-02-23T08:24:04;26.90;;;17.57;;
2698;SDS011;1359;51.798;12.174;2023-02-23T08:26:30;29.63;;;19.53;;
2698;SDS011;1359;51.798;12.174;2023-02-23T08:28:55;24.53;;;18.10;;
2698;SDS011;1359;51.798;12.174;2023-02-23T08:31:21;35.57;;;23.40;;
2698;SDS011;1359;51.798;12.174;2023-02-23T08:33:47;36.93;;;22.37;;
2698;SDS011;1359;51.798;12.174;2023-02-23T08:36:12;27.90;;;20.10;;
2698;SDS011;1359;51.798;12.174;2023-02-23T08:38:38;35.63;;;21.23;;
2698;SDS011;1359;51.798;12.174;2023-02-23T08:41:04;25.93;;;18.90;;
2698;SDS011;1359;51.798;12.174;2023-02-23T08:43:29;27.30;;;19.57;;
2698;SDS011;1359;51.798;12.174;2023-02-23T08:45:55;24.10;;;17.43;;
2698;SDS011;1359;51.798;12.174;2023-02-23T08:48:20;26.10;;;18.37;;
2698;SDS011;1359;51.798;12.174;2023-02-23T08:50:49;24.87;;;18.10;;
2698;SDS011;1359;51.798;12.174;2023-02-23T08:53:17;30.00;;;19.13;;
2698;SDS011;1359;51.798;12.174;2023-02-23T08:55:42;30.60;;;20.90;;
2698;SDS011;1359;51.798;12.174;2023-02-23T08:58:08;26.27;;;19.53;;
2698;SDS011;1359;51.798;12.174;2023-02-23T09:00:37;29.97;;;21.37;;
2698;SDS011;1359;51.798;12.174;2023-02-23T09:03:03;37.57;;;25.07;;
2698;SDS011;1359;51.798;12.174;2023-02-23T09:05:29;38.43;;;25.00;;
2698;SDS011;1359;51.798;12.174;2023-02-23T09:07:55;33.40;;;24.00;;
2698;SDS011;1359;51.798;12.174;2023-02-23T09:10:20;33.53;;;22.73;;
2698;SDS011;1359;51.798;12.174;2023-02-23T09:12:49;34.60;;;23.20;;
2698;SDS011;1359;51.798;12.174;2023-02-23T09:15:14;35.87;;;24.07;;
2698;SDS011;1359;51.798;12.174;2023-02-23T09:17:39;37.53;;;25.37;;
2698;SDS011;1359;51.798;12.174;2023-02-23T09:20:10;34.30;;;25.20;;
2698;SDS011;1359;51.798;12.174;2023-02-23T09:22:38;45.03;;;26.90;;
2698;SDS011;1359;51.798;12.174;2023-02-23T09:25:04;42.07;;;27.47;;
2698;SDS011;1359;51.798;12.174;2023-02-23T09:27:29;39.30;;;25.00;;
2698;SDS011;1359;51.798;12.174;2023-02-23T09:29:54;41.80;;;26.53;;
2698;SDS011;1359;51.798;12.174;2023-02-23T09:32:20;40.60;;;24.53;;
2698;SDS011;1359;51.798;12.174;2023-02-23T09:34:45;40.87;;;25.50;;
2698;SDS011;1359;51.798;12.174;2023-02-23T09:37:12;43.63;;;26.80;;
2698;SDS011;1359;51.798;12.174;2023-02-23T09:39:38;44.57;;;25.57;;
2698;SDS011;1359;51.798;12.174;2023-02-23T09:42:09;45.50;;;27.33;;
2698;SDS011;1359;51.798;12.174;2023-02-23T09:44:52;39.97;;;25.20;;
2698;SDS011;1359;51.798;12.174;2023-02-23T09:47:33;45.23;;;27.23;;
2698;SDS011;1359;51.798;12.174;2023-02-23T09:50:07;40.30;;;26.40;;
2698;SDS011;1359;51.798;12.174;2023-02-23T09:52:37;45.20;;;27.13;;
2698;SDS011;1359;51.798;12.174;2023-02-23T09:55:03;39.27;;;26.93;;
2698;SDS011;1359;51.798;12.174;2023-02-23T09:57:35;36.50;;;25.90;;
2698;SDS011;1359;51.798;12.174;2023-02-23T10:00:01;43.57;;;26.93;;
2698;SDS011;1359;51.798;12.174;2023-02-23T10:05:00;38.97;;;26.37;;
2698;SDS011;1359;51.798;12.174;2023-02-23T10:07:31;41.97;;;29.40;;
2698;SDS011;1359;51.798;12.174;2023-02-23T10:18:16;48.90;;;29.47;;
2698;SDS011;1359;51.798;12.174;2023-02-23T10:23:10;48.97;;;30.60;;
2698;SDS011;1359;51.798;12.174;2023-02-23T10:25:39;48.37;;;30.57;;
2698;SDS011;1359;51.798;12.174;2023-02-23T10:28:07;42.30;;;28.60;;
2698;SDS011;1359;51.798;12.174;2023-02-23T10:30:36;49.47;;;30.77;;
2698;SDS011;1359;51.798;12.174;2023-02-23T10:33:36;43.43;;;29.60;;
2698;SDS011;1359;51.798;12.174;2023-02-23T10:35:54;51.40;;;31.70;;
2698;SDS011;1359;51.798;12.174;2023-02-23T10:38:21;46.17;;;33.13;;
2698;SDS011;1359;51.798;12.174;2023-02-23T10:40:52;55.67;;;34.57;;
2698;SDS011;1359;51.798;12.174;2023-02-23T10:43:18;52.20;;;33.40;;
2698;SDS011;1359;51.798;12.174;2023-02-23T10:45:45;46.03;;;31.20;;
2698;SDS011;1359;51.798;12.174;2023-02-23T10:48:13;55.97;;;34.47;;
2698;SDS011;1359;51.798;12.174;2023-02-23T10:50:40;56.43;;;34.00;;
2698;SDS011;1359;51.798;12.174;2023-02-23T10:53:18;63.67;;;35.87;;
2698;SDS011;1359;51.798;12.174;2023-02-23T10:55:46;64.10;;;36.03;;
2698;SDS011;1359;51.798;12.174;2023-02-23T10:58:23;65.83;;;39.30;;
2698;SDS011;1359;51.798;12.174;2023-02-23T11:00:53;56.90;;;36.30;;
2698;SDS011;1359;51.798;12.174;2023-02-23T11:03:27;56.83;;;36.07;;
2698;SDS011;1359;51.798;12.174;2023-02-23T11:05:53;63.80;;;37.80;;
2698;SDS011;1359;51.798;12.174;2023-02-23T11:08:23;69.27;;;39.83;;
2698;SDS011;1359;51.798;12.174;2023-02-23T11:13:40;65.37;;;40.07;;
2698;SDS011;1359;51.798;12.174;2023-02-23T11:16:13;78.07;;;39.53;;
2698;SDS011;1359;51.798;12.174;2023-02-23T11:18:40;81.77;;;44.50;;
2698;SDS011;1359;51.798;12.174;2023-02-23T11:21:10;71.80;;;40.47;;
2698;SDS011;1359;51.798;12.174;2023-02-23T11:23:36;68.47;;;41.97;;
2698;SDS011;1359;51.798;12.174;2023-02-23T11:26:03;73.40;;;41.70;;
2698;SDS011;1359;51.798;12.174;2023-02-23T11:28:33;72.27;;;42.33;;
2698;SDS011;1359;51.798;12.174;2023-02-23T11:31:01;67.77;;;40.60;;
2698;SDS011;1359;51.798;12.174;2023-02-23T11:33:29;68.70;;;41.00;;
2698;SDS011;1359;51.798;12.174;2023-02-23T11:35:59;84.93;;;44.47;;
2698;SDS011;1359;51.798;12.174;2023-02-23T11:38:25;69.30;;;42.17;;
2698;SDS011;1359;51.798;12.174;2023-02-23T11:40:59;70.97;;;40.10;;
2698;SDS011;1359;51.798;12.174;2023-02-23T11:43:25;71.87;;;41.40;;
2698;SDS011;1359;51.798;12.174;2023-02-23T11:45:51;76.00;;;42.50;;
2698;SDS011;1359;51.798;12.174;2023-02-23T11:48:21;85.33;;;44.50;;
2698;SDS011;1359;51.798;12.174;2023-02-23T11:50:48;80.30;;;43.80;;
2698;SDS011;1359;51.798;12.174;2023-02-23T11:53:15;84.03;;;44.20;;
2698;SDS011;1359;51.798;12.174;2023-02-23T11:55:48;82.80;;;45.30;;
2698;SDS011;1359;51.798;12.174;2023-02-23T12:00:53;90.10;;;49.67;;
2698;SDS011;1359;51.798;12.174;2023-02-23T12:03:20;80.23;;;48.03;;
2698;SDS011;1359;51.798;12.174;2023-02-23T12:05:48;84.20;;;48.00;;
2698;SDS011;1359;51.798;12.174;2023-02-23T12:10:41;86.50;;;46.77;;
2698;SDS011;1359;51.798;12.174;2023-02-23T12:18:03;78.70;;;44.80;;
2698;SDS011;1359;51.798;12.174;2023-02-23T12:20:33;72.13;;;43.50;;
2698;SDS011;1359;51.798;12.174;2023-02-23T12:23:03;80.03;;;44.03;;
2698;SDS011;1359;51.798;12.174;2023-02-23T12:25:43;86.17;;;45.90;;
2698;SDS011;1359;51.798;12.174;2023-02-23T12:28:19;82.97;;;45.03;;
2698;SDS011;1359;51.798;12.174;2023-02-23T12:33:15;78.77;;;44.47;;
2698;SDS011;1359;51.798;12.174;2023-02-23T12:35:49;84.40;;;48.80;;
2698;SDS011;1359;51.798;12.174;2023-02-23T12:38:21;70.17;;;42.97;;
2698;SDS011;1359;51.798;12.174;2023-02-23T12:40:53;74.00;;;44.43;;
2698;SDS011;1359;51.798;12.174;2023-02-23T12:46:06;82.07;;;44.13;;
2698;SDS011;1359;51.798;12.174;2023-02-23T12:48:34;79.77;;;44.27;;
2698;SDS011;1359;51.798;12.174;2023-02-23T12:51:03;86.37;;;48.87;;
2698;SDS011;1359;51.798;12.174;2023-02-23T12:53:34;79.30;;;45.40;;
2698;SDS011;1359;51.798;12.174;2023-02-23T12:58:32;82.63;;;46.37;;
2698;SDS011;1359;51.798;12.174;2023-02-23T13:01:07;84.80;;;47.67;;
2698;SDS011;1359;51.798;12.174;2023-02-23T13:03:44;89.30;;;50.37;;
2698;SDS011;1359;51.798;12.174;2023-02-23T13:06:19;93.70;;;50.17;;
2698;SDS011;1359;51.798;12.174;2023-02-23T13:08:55;95.20;;;52.03;;
2698;SDS011;1359;51.798;12.174;2023-02-23T13:16:40;89.47;;;50.30;;
2698;SDS011;1359;51.798;12.174;2023-02-23T13:19:10;94.97;;;52.50;;
2698;SDS011;1359;51.798;12.174;2023-02-23T13:21:40;101.47;;;52.40;;
2698;SDS011;1359;51.798;12.174;2023-02-23T13:24:18;95.57;;;51.70;;
2698;SDS011;1359;51.798;12.174;2023-02-23T13:26:59;86.70;;;51.37;;
2698;SDS011;1359;51.798;12.174;2023-02-23T13:29:36;100.33;;;53.00;;
2698;SDS011;1359;51.798;12.174;2023-02-23T13:32:03;96.37;;;51.80;;
2698;SDS011;1359;51.798;12.174;2023-02-23T13:34:30;102.00;;;54.30;;
2698;SDS011;1359;51.798;12.174;2023-02-23T13:36:57;91.63;;;51.37;;
2698;SDS011;1359;51.798;12.174;2023-02-23T13:39:47;91.30;;;50.43;;
2698;SDS011;1359;51.798;12.174;2023-02-23T13:42:19;83.73;;;50.60;;
2698;SDS011;1359;51.798;12.174;2023-02-23T13:49:45;109.70;;;54.80;;
2698;SDS011;1359;51.798;12.174;2023-02-23T13:52:35;94.83;;;53.70;;
2698;SDS011;1359;51.798;12.174;2023-02-23T13:55:03;90.30;;;53.23;;
2698;SDS011;1359;51.798;12.174;2023-02-23T13:57:49;94.60;;;51.20;;
2698;SDS011;1359;51.798;12.174;2023-02-23T14:00:15;94.50;;;53.63;;
2698;SDS011;1359;51.798;12.174;2023-02-23T14:02:42;94.47;;;55.33;;
2698;SDS011;1359;51.798;12.174;2023-02-23T14:05:23;94.20;;;54.40;;
2698;SDS011;1359;51.798;12.174;2023-02-23T14:07:56;95.03;;;53.47;;
2698;SDS011;1359;51.798;12.174;2023-02-23T14:10:24;98.57;;;53.70;;
2698;SDS011;1359;51.798;12.174;2023-02-23T14:27:59;91.17;;;54.47;;
2698;SDS011;1359;51.798;12.174;2023-02-23T14:30:28;102.83;;;55.37;;
2698;SDS011;1359;51.798;12.174;2023-02-23T14:32:54;109.20;;;55.13;;
2698;SDS011;1359;51.798;12.174;2023-02-23T14:35:46;115.00;;;57.13;;
2698;SDS011;1359;51.798;12.174;2023-02-23T14:38:16;104.67;;;55.47;;
2698;SDS011;1359;51.798;12.174;2023-02-23T14:40:47;101.37;;;58.50;;
2698;SDS011;1359;51.798;12.174;2023-02-23T14:43:32;103.73;;;56.87;;
2698;SDS011;1359;51.798;12.174;2023-02-23T14:46:03;94.03;;;51.57;;
2698;SDS011;1359;51.798;12.174;2023-02-23T14:48:32;98.73;;;56.67;;
2698;SDS011;1359;51.798;12.174;2023-02-23T14:51:19;102.87;;;54.03;;
2698;SDS011;1359;51.798;12.174;2023-02-23T14:53:45;102.73;;;54.23;;
2698;SDS011;1359;51.798;12.174;2023-02-23T14:56:21;101.87;;;55.13;;
2698;SDS011;1359;51.798;12.174;2023-02-23T14:58:50;110.30;;;55.20;;
2698;SDS011;1359;51.798;12.174;2023-02-23T15:04:17;93.70;;;52.90;;
2698;SDS011;1359;51.798;12.174;2023-02-23T15:06:44;96.97;;;51.40;;
2698;SDS011;1359;51.798;12.174;2023-02-23T15:09:14;101.80;;;53.23;;
2698;SDS011;1359;51.798;12.174;2023-02-23T15:11:41;115.70;;;57.67;;
2698;SDS011;1359;51.798;12.174;2023-02-23T15:14:10;96.43;;;53.77;;
2698;SDS011;1359;51.798;12.174;2023-02-23T15:16:37;98.80;;;56.00;;
2698;SDS011;1359;51.798;12.174;2023-02-23T15:21:54;110.43;;;55.10;;
2698;SDS011;1359;51.798;12.174;2023-02-23T15:24:21;106.77;;;56.77;;
2698;SDS011;1359;51.798;12.174;2023-02-23T15:26:49;103.53;;;54.77;;
2698;SDS011;1359;51.798;12.174;2023-02-23T15:29:30;107.07;;;54.90;;
2698;SDS011;1359;51.798;12.174;2023-02-23T15:32:08;112.07;;;55.80;;
2698;SDS011;1359;51.798;12.174;2023-02-23T15:34:36;99.33;;;55.93;;
2698;SDS011;1359;51.798;12.174;2023-02-23T15:37:02;103.63;;;55.17;;
2698;SDS011;1359;51.798;12.174;2023-02-23T15:39:33;95.83;;;53.47;;
2698;SDS011;1359;51.798;12.174;2023-02-23T15:42:00;110.67;;;54.80;;
2698;SDS011;1359;51.798;12.174;2023-02-23T15:44:26;92.47;;;52.13;;
2698;SDS011;1359;51.798;12.174;2023-02-23T15:46:59;100.20;;;53.97;;
2698;SDS011;1359;51.798;12.174;2023-02-23T15:49:26;98.67;;;54.77;;
2698;SDS011;1359;51.798;12.174;2023-02-23T15:51:56;117.90;;;54.70;;
2698;SDS011;1359;51.798;12.174;2023-02-23T15:54:28;98.63;;;52.43;;
2698;SDS011;1359;51.798;12.174;2023-02-23T15:56:55;113.77;;;56.20;;
2698;SDS011;1359;51.798;12.174;2023-02-23T15:59:25;114.67;;;54.27;;
2698;SDS011;1359;51.798;12.174;2023-02-23T16:01:53;100.00;;;54.27;;
2698;SDS011;1359;51.798;12.174;2023-02-23T16:04:18;105.37;;;55.77;;
2698;SDS011;1359;51.798;12.174;2023-02-23T16:06:53;108.07;;;54.57;;
2698;SDS011;1359;51.798;12.174;2023-02-23T16:14:33;92.70;;;51.30;;
2698;SDS011;1359;51.798;12.174;2023-02-23T16:17:00;93.03;;;52.83;;
2698;SDS011;1359;51.798;12.174;2023-02-23T16:19:26;98.53;;;55.13;;
2698;SDS011;1359;51.798;12.174;2023-02-23T16:21:54;103.67;;;51.60;;
2698;SDS011;1359;51.798;12.174;2023-02-23T16:24:22;100.50;;;50.40;;
2698;SDS011;1359;51.798;12.174;2023-02-23T16:26:49;81.20;;;49.47;;
2698;SDS011;1359;51.798;12.174;2023-02-23T16:29:31;86.47;;;52.10;;
2698;SDS011;1359;51.798;12.174;2023-02-23T16:32:00;96.03;;;49.30;;